Time;durP1;ratioP1;P1;durP2;ratioP2;P2;SDS_P1;SDS_P2;PMS_P1;PMS_P2;Temp;Humidity;BMP_temperature;BMP_pressure;BME280_temperature;BME280_humidity;BME280_pressure;Samples;Min_cycle;Max_cycle;Signal;HPM_P1;HPM_P2
2021/05/14 00:00:08;;;;;;;21.25;19.25;;;;;;;11.98;77.10;100745.84;5113768;28;20486;-38
2021/05/14 00:02:33;;;;;;;19.23;17.40;;;;;;;11.88;77.26;100741.06;5113474;28;20024;-38
2021/05/14 00:04:59;;;;;;;21.80;19.60;;;;;;;11.85;77.30;100744.25;5113589;28;20081;-38
2021/05/14 00:07:25;;;;;;;;;;;;;;;12.02;75.29;100749.72;5113650;28;20383;-38
2021/05/14 00:09:50;;;;;;;18.40;16.50;;;;;;;11.88;77.44;100746.47;5113499;28;19908;-38
2021/05/14 00:12:15;;;;;;;19.73;17.90;;;;;;;11.82;77.57;100744.75;5113654;28;20073;-38
2021/05/14 00:14:41;;;;;;;19.98;17.98;;;;;;;11.79;77.67;100732.47;5113151;28;20035;-39
2021/05/14 00:17:06;;;;;;;20.13;17.93;;;;;;;11.71;78.13;100743.69;5113421;28;20027;-38
2021/05/14 00:19:31;;;;;;;19.27;17.40;;;;;;;11.68;78.01;100746.06;5113396;28;20035;-38
2021/05/14 00:21:57;;;;;;;20.30;18.30;;;;;;;11.54;78.44;100745.50;5113104;28;20034;-38
2021/05/14 00:24:22;;;;;;;19.93;18.03;;;;;;;11.46;79.02;100746.69;5113397;28;20081;-38
2021/05/14 00:26:48;;;;;;;21.30;19.23;;;;;;;11.41;78.89;100741.16;5113880;28;20047;-38
2021/05/14 00:29:13;;;;;;;20.15;18.25;;;;;;;11.36;79.39;100746.47;5113565;28;20024;-38
2021/05/14 00:31:38;;;;;;;20.03;18.13;;;;;;;11.37;79.85;100745.44;5112979;28;20077;-39
2021/05/14 00:34:04;;;;;;;18.87;17.10;;;;;;;11.42;79.45;100745.53;5112094;28;20020;-38
2021/05/14 00:36:29;;;;;;;19.33;17.20;;;;;;;11.37;79.70;100741.88;5112848;28;20089;-38
2021/05/14 00:38:54;;;;;;;20.27;18.33;;;;;;;11.45;79.46;100741.50;5113153;28;20544;-39
2021/05/14 00:41:20;;;;;;;20.47;18.40;;;;;;;11.35;79.91;100747.53;5113076;28;20269;-38
2021/05/14 00:43:45;;;;;;;20.03;17.93;;;;;;;11.27;80.00;100747.91;5113412;28;20118;-38
2021/05/14 00:46:10;;;;;;;19.90;18.00;;;;;;;11.18;79.53;100746.66;5113376;28;20754;-38
2021/05/14 00:48:38;;;;;;;20.60;18.60;;;;;;;11.11;80.31;100741.34;5116633;28;20030;-38
2021/05/14 00:51:04;;;;;;;18.50;16.73;;;;;;;11.11;79.98;100741.34;5117138;28;20457;-38
2021/05/14 00:53:30;;;;;;;20.30;18.23;;;;;;;11.00;80.15;100744.88;5116666;28;20194;-38
2021/05/14 00:55:55;;;;;;;20.77;18.70;;;;;;;11.11;79.80;100745.94;5117119;28;20110;-38
2021/05/14 00:58:20;;;;;;;19.17;17.38;;;;;;;10.95;80.15;100739.34;5116713;28;20047;-38
2021/05/14 01:00:46;;;;;;;19.90;18.00;;;;;;;10.93;80.10;100745.00;5116979;28;20122;-38
2021/05/14 01:03:14;;;;;;;21.73;19.43;;;;;;;10.91;80.39;100743.59;5116624;28;20028;-39
2021/05/14 01:05:43;;;;;;;21.00;18.90;;;;;;;10.78;80.73;100742.78;5117090;28;20024;-38
2021/05/14 01:08:10;;;;;;;21.25;18.95;;;;;;;10.77;80.60;100745.69;5116949;28;20089;-38
2021/05/14 01:10:35;;;;;;;21.67;19.13;;;;;;;10.72;80.41;100745.56;5116770;28;20516;-38
2021/05/14 01:13:01;;;;;;;20.65;18.63;;;;;;;10.65;80.52;100736.78;5116607;28;20023;-38
2021/05/14 01:15:26;;;;;;;20.67;18.73;;;;;;;10.61;80.68;100739.09;5116453;28;20031;-38
2021/05/14 01:17:52;;;;;;;20.10;18.03;;;;;;;10.56;80.21;100739.81;5116280;28;20036;-38
2021/05/14 01:20:17;;;;;;;19.83;17.93;;;;;;;10.60;80.37;100734.75;5116354;28;20020;-38
2021/05/14 01:22:43;;;;;;;20.77;18.73;;;;;;;10.55;81.72;100732.75;5116234;28;20023;-38
2021/05/14 01:25:09;;;;;;;21.15;19.00;;;;;;;10.61;81.17;100741.81;5116540;28;20082;-38
2021/05/14 01:27:34;;;;;;;19.42;17.52;;;;;;;10.62;81.47;100743.44;5116069;28;20023;-38
2021/05/14 01:29:59;;;;;;;19.83;17.97;;;;;;;10.67;81.30;100740.88;5116110;28;20027;-38
2021/05/14 01:32:25;;;;;;;19.50;17.67;;;;;;;10.58;81.12;100740.38;5115824;28;20258;-38
2021/05/14 01:34:50;;;;;;;20.10;18.00;;;;;;;10.44;81.13;100730.88;5116644;28;20031;-38
2021/05/14 01:37:15;;;;;;;19.97;17.90;;;;;;;10.44;81.61;100744.38;5115938;28;20027;-38
2021/05/14 01:39:42;;;;;;;19.87;17.97;;;;;;;10.47;81.85;100743.09;5116268;28;20023;-38
2021/05/14 01:42:07;;;;;;;20.08;18.08;;;;;;;10.42;81.47;100746.47;5115844;28;20031;-38
2021/05/14 01:44:32;;;;;;;20.17;18.07;;;;;;;10.44;81.08;100740.84;5115899;28;20031;-38
2021/05/14 01:46:58;;;;;;;20.97;18.87;;;;;;;10.39;81.14;100741.53;5115472;27;20162;-38
2021/05/14 01:49:24;;;;;;;20.98;17.83;;;;;;;10.35;80.77;100743.06;5115478;28;20035;-39
2021/05/14 01:51:49;;;;;;;19.70;17.73;;;;;;;10.32;80.49;100743.53;5115634;28;20039;-39
2021/05/14 01:54:16;;;;;;;20.00;18.08;;;;;;;10.31;80.99;100747.28;5116438;28;20035;-39
2021/05/14 01:56:49;;;;;;;18.70;16.95;;;;;;;10.28;81.04;100745.03;5115477;27;20463;-39
2021/05/14 01:59:15;;;;;;;19.13;17.23;;;;;;;10.21;80.29;100747.00;5115138;28;20379;-39
2021/05/14 02:01:41;;;;;;;18.95;17.10;;;;;;;10.16;80.02;100749.56;5115505;28;20133;-39
2021/05/14 02:04:07;;;;;;;;;;;;;;;10.30;78.79;100743.75;5116077;28;20028;-39
2021/05/14 02:06:32;;;;;;;18.65;16.85;;;;;;;10.12;81.16;100748.38;5115362;27;20415;-39
2021/05/14 02:08:57;;;;;;;19.20;17.10;;;;;;;10.05;80.43;100737.66;5115699;28;20034;-37
2021/05/14 02:11:23;;;;;;;20.07;17.97;;;;;;;9.99;80.53;100742.09;5115254;28;20375;-38
2021/05/14 02:13:48;;;;;;;20.63;18.63;;;;;;;9.96;81.60;100742.56;5114545;28;20024;-37
2021/05/14 02:16:13;;;;;;;19.43;17.53;;;;;;;9.92;80.93;100743.25;5115775;27;20106;-37
2021/05/14 02:18:39;;;;;;;18.97;17.07;;;;;;;9.91;80.68;100742.44;5115267;28;20027;-37
2021/05/14 02:21:06;;;;;;;19.13;17.33;;;;;;;9.90;80.86;100739.94;5114867;28;20031;-37
2021/05/14 02:23:31;;;;;;;20.02;17.98;;;;;;;9.83;81.07;100740.03;5115688;28;20055;-37
2021/05/14 02:25:57;;;;;;;19.20;17.50;;;;;;;9.86;81.78;100736.91;5115588;28;20075;-37
2021/05/14 02:28:22;;;;;;;19.47;17.57;;;;;;;9.84;81.67;100736.28;5115252;27;20419;-37
2021/05/14 02:30:48;;;;;;;18.63;16.83;;;;;;;9.81;81.88;100736.75;5115156;28;20036;-37
2021/05/14 02:33:13;;;;;;;20.50;18.50;;;;;;;9.81;81.88;100739.47;5115057;28;20620;-37
2021/05/14 02:35:39;;;;;;;18.30;16.60;;;;;;;9.83;81.56;100731.13;5115122;28;20460;-37
2021/05/14 02:38:05;;;;;;;18.70;16.90;;;;;;;9.85;82.60;100737.94;5114677;27;20053;-37
2021/05/14 02:40:32;;;;;;;20.88;17.60;;;;;;;9.87;82.87;100732.31;5114973;28;20755;-37
2021/05/14 02:42:57;;;;;;;;;;;;;;;10.02;81.17;100738.13;5115331;28;20036;-37
2021/05/14 02:45:23;;;;;;;18.37;16.57;;;;;;;9.91;82.51;100730.81;5115129;28;19961;-37
2021/05/14 02:47:48;;;;;;;;;;;;;;;10.05;80.30;100735.78;5114982;28;20764;-37
2021/05/14 02:50:14;;;;;;;19.00;17.10;;;;;;;9.90;82.56;100732.66;5114796;28;20005;-37
2021/05/14 02:52:40;;;;;;;18.92;17.02;;;;;;;9.94;82.47;100736.56;5114241;28;20039;-37
2021/05/14 02:55:07;;;;;;;17.38;15.70;;;;;;;9.91;81.75;100739.72;5114445;28;20172;-37
2021/05/14 02:57:33;;;;;;;18.05;16.15;;;;;;;9.95;82.73;100738.19;5113818;28;20368;-37
2021/05/14 02:59:58;;;;;;;18.55;16.67;;;;;;;9.89;82.06;100733.72;5114630;28;20113;-37
2021/05/14 03:02:24;;;;;;;20.25;18.25;;;;;;;9.81;81.86;100731.38;5114014;28;20108;-38
2021/05/14 03:04:49;;;;;;;22.30;17.97;;;;;;;9.87;82.67;100733.13;5114241;28;20547;-37
2021/05/14 03:07:15;;;;;;;19.67;17.77;;;;;;;9.76;82.18;100733.91;5114229;28;20751;-37
2021/05/14 03:09:40;;;;;;;18.77;16.90;;;;;;;9.80;81.83;100727.81;5114071;28;20034;-38
2021/05/14 03:12:06;;;;;;;20.13;18.13;;;;;;;9.82;82.58;100729.47;5113433;28;20443;-37
2021/05/14 03:14:31;;;;;;;18.55;16.80;;;;;;;9.75;82.51;100735.78;5113185;28;20580;-37
2021/05/14 03:16:57;;;;;;;19.53;17.60;;;;;;;9.71;82.34;100733.75;5114095;28;20032;-38
2021/05/14 03:19:22;;;;;;;19.25;17.35;;;;;;;9.62;81.48;100727.03;5113246;28;20040;-38
2021/05/14 03:21:47;;;;;;;19.60;17.60;;;;;;;9.56;82.09;100731.44;5113712;28;20458;-37
2021/05/14 03:24:13;;;;;;;19.70;17.80;;;;;;;9.57;82.16;100733.13;5114268;28;20073;-37
2021/05/14 03:26:38;;;;;;;18.83;17.00;;;;;;;9.47;81.42;100736.34;5114510;28;20048;-37
2021/05/14 03:29:04;;;;;;;19.87;17.87;;;;;;;9.41;82.64;100737.25;5114012;28;20019;-37
2021/05/14 03:31:30;;;;;;;18.90;17.00;;;;;;;9.29;82.85;100741.75;5114160;28;20027;-37
2021/05/14 03:33:55;;;;;;;;;;;;;;;9.48;81.01;100732.59;5114289;28;20272;-38
2021/05/14 03:36:21;;;;;;;19.67;17.57;;;;;;;9.30;82.32;100735.31;5113534;28;19912;-38
2021/05/14 03:38:47;;;;;;;18.90;17.00;;;;;;;9.26;82.12;100734.91;5114125;28;20285;-38
2021/05/14 03:41:44;;;;;;;20.75;18.55;;;;;;;9.21;82.94;100729.38;5114450;28;20062;-37
2021/05/14 03:43:59;;;;;;;19.80;17.80;;;;;;;9.22;82.57;100738.28;5113714;28;20153;-38
2021/05/14 03:46:28;;;;;;;19.55;17.65;;;;;;;9.13;82.86;100740.47;5113995;28;20447;-38
2021/05/14 03:48:54;;;;;;;19.48;17.52;;;;;;;9.13;82.77;100737.78;5113273;28;20023;-38
2021/05/14 03:51:19;;;;;;;20.02;17.92;;;;;;;9.15;82.80;100737.56;5114001;28;20424;-38
2021/05/14 03:53:44;;;;;;;21.00;18.40;;;;;;;9.11;82.77;100742.56;5114045;28;20032;-38
2021/05/14 03:56:10;;;;;;;21.50;19.33;;;;;;;9.15;82.36;100741.06;5113721;28;20102;-38
2021/05/14 03:58:35;;;;;;;19.80;17.75;;;;;;;9.19;81.94;100741.47;5113507;28;20030;-37
2021/05/14 04:01:01;;;;;;;19.97;17.83;;;;;;;9.19;82.36;100736.06;5114222;28;20069;-38
2021/05/14 04:03:26;;;;;;;21.17;18.73;;;;;;;9.12;82.93;100735.28;5112196;28;20047;-38
2021/05/14 04:05:51;;;;;;;19.47;17.30;;;;;;;9.14;82.11;100735.91;5113784;28;20016;-38
2021/05/14 04:08:17;;;;;;;20.93;18.30;;;;;;;9.13;82.78;100740.47;5113762;28;20032;-38
2021/05/14 04:16:04;;;;;;;18.88;16.98;;;;;;;9.08;82.96;100743.03;5113752;28;20039;-38
2021/05/14 04:18:29;;;;;;;19.27;17.27;;;;;;;9.14;82.37;100746.69;5113275;28;20024;-38
2021/05/14 04:20:54;;;;;;;19.93;17.90;;;;;;;9.06;82.90;100738.88;5113934;28;20035;-37
2021/05/14 04:23:20;;;;;;;17.07;15.40;;;;;;;9.19;82.36;100750.38;5117186;28;20026;-38
2021/05/14 04:25:46;;;;;;;19.03;16.90;;;;;;;9.17;82.79;100748.94;5117452;28;20092;-38
2021/05/14 04:28:11;;;;;;;18.70;16.83;;;;;;;9.11;83.27;100750.66;5117032;28;20020;-38
2021/05/14 04:30:38;;;;;;;19.60;17.50;;;;;;;9.14;83.35;100755.63;5117352;28;20386;-38
2021/05/14 04:33:05;;;;;;;19.10;17.17;;;;;;;9.19;82.68;100753.06;5117129;28;20471;-38
2021/05/14 04:35:30;;;;;;;19.13;17.23;;;;;;;9.21;82.50;100750.13;5117385;28;20027;-38
2021/05/14 04:37:56;;;;;;;18.00;16.10;;;;;;;9.23;82.95;100762.38;5116985;28;20470;-38
2021/05/14 04:40:21;;;;;;;17.77;15.97;;;;;;;9.27;81.95;100758.19;5116860;28;20253;-37
2021/05/14 04:42:47;;;;;;;18.60;16.70;;;;;;;9.33;82.42;100761.84;5116695;28;20027;-38
2021/05/14 04:45:13;;;;;;;18.65;16.70;;;;;;;9.29;82.66;100758.78;5116688;28;20027;-38
2021/05/14 04:47:38;;;;;;;;;;;;;;;9.47;81.92;100763.34;5117210;28;20111;-38
2021/05/14 04:50:05;;;;;;;19.37;16.50;;;;;;;9.49;82.17;100765.81;5117104;28;19939;-38
2021/05/14 04:52:31;;;;;;;23.10;19.40;;;;;;;9.45;82.71;100761.91;5116753;28;20283;-38
2021/05/14 04:54:56;;;;;;;25.10;20.90;;;;;;;9.58;81.96;100766.34;5116523;28;20020;-38
2021/05/14 04:57:23;;;;;;;26.37;22.00;;;;;;;9.57;83.02;100768.22;5116361;28;20030;-38
2021/05/14 04:59:48;;;;;;;25.88;21.73;;;;;;;9.60;83.24;100762.34;5116971;28;20023;-38
2021/05/14 05:02:14;;;;;;;25.27;21.93;;;;;;;9.65;83.08;100758.97;5116676;28;20027;-38
2021/05/14 05:04:39;;;;;;;26.27;21.02;;;;;;;9.70;82.99;100772.63;5116667;28;20459;-38
2021/05/14 05:07:08;;;;;;;25.65;21.10;;;;;;;9.65;83.06;100767.88;5116266;28;20032;-38
2021/05/14 05:09:34;;;;;;;24.63;20.67;;;;;;;9.76;82.19;100763.59;5116553;28;20034;-38
2021/05/14 05:12:00;;;;;;;24.17;20.00;;;;;;;9.74;82.76;100768.41;5116476;28;20028;-38
2021/05/14 05:14:27;;;;;;;22.65;19.67;;;;;;;9.82;82.23;100764.59;5116664;28;20378;-38
2021/05/14 05:16:53;;;;;;;20.13;17.90;;;;;;;9.83;82.12;100761.66;5116920;28;20024;-38
2021/05/14 05:19:19;;;;;;;21.25;18.77;;;;;;;9.88;81.66;100769.06;5116226;28;20042;-39
2021/05/14 05:21:44;;;;;;;20.92;17.60;;;;;;;9.96;81.65;100776.88;5115852;28;20072;-38
2021/05/14 05:24:09;;;;;;;20.70;17.90;;;;;;;9.87;81.42;100773.66;5116781;27;20449;-38
2021/05/14 05:26:35;;;;;;;20.73;18.43;;;;;;;9.94;82.32;100768.97;5116618;28;20395;-38
2021/05/14 05:29:00;;;;;;;19.60;17.35;;;;;;;9.96;82.00;100779.56;5116392;28;20334;-38
2021/05/14 05:31:26;;;;;;;21.37;18.43;;;;;;;9.93;82.56;100767.34;5116410;28;20459;-38
2021/05/14 05:33:51;;;;;;;20.10;17.70;;;;;;;10.02;81.83;100779.47;5114715;28;20076;-38
2021/05/14 05:36:17;;;;;;;22.67;17.67;;;;;;;10.01;81.57;100777.00;5116326;28;20023;-38
2021/05/14 05:38:43;;;;;;;19.83;17.67;;;;;;;10.09;81.27;100776.66;5116093;28;20027;-38
2021/05/14 05:41:08;;;;;;;20.63;16.37;;;;;;;10.14;81.99;100773.28;5116738;28;20036;-38
2021/05/14 05:43:33;;;;;;;17.93;15.97;;;;;;;10.13;81.41;100766.22;5115549;28;20034;-38
2021/05/14 05:45:59;;;;;;;21.20;17.23;;;;;;;10.21;81.73;100768.63;5115702;28;20035;-38
2021/05/14 05:48:24;;;;;;;20.43;17.80;;;;;;;10.12;81.39;100772.69;5115734;28;20035;-38
2021/05/14 05:50:50;;;;;;;16.70;15.00;;;;;;;10.23;81.67;100771.91;5116303;28;20027;-39
2021/05/14 05:53:16;;;;;;;18.67;16.50;;;;;;;10.14;81.78;100768.69;5115704;28;20032;-38
2021/05/14 05:55:41;;;;;;;17.50;15.70;;;;;;;10.19;81.13;100774.22;5116180;28;20360;-38
2021/05/14 05:58:08;;;;;;;18.17;16.27;;;;;;;10.27;81.46;100773.13;5115521;28;20085;-38
2021/05/14 06:00:34;;;;;;;22.30;17.20;;;;;;;10.20;81.84;100775.91;5115836;27;20250;-38
2021/05/14 06:03:01;;;;;;;17.90;16.00;;;;;;;10.26;81.89;100783.13;5115515;28;20030;-38
2021/05/14 06:05:27;;;;;;;18.35;15.32;;;;;;;10.27;80.95;100778.53;5115937;28;20016;-38
2021/05/14 06:07:52;;;;;;;18.73;16.77;;;;;;;10.23;81.32;100785.41;5115313;28;20034;-38
2021/05/14 06:10:18;;;;;;;21.57;16.93;;;;;;;10.25;81.70;100795.00;5115331;28;20027;-38
2021/05/14 06:12:43;;;;;;;21.67;17.73;;;;;;;10.27;82.02;100789.34;5114932;28;20024;-38
2021/05/14 06:15:09;;;;;;;18.87;15.83;;;;;;;10.31;82.89;100785.13;5115074;28;20451;-38
2021/05/14 06:17:39;;;;;;;19.38;16.45;;;;;;;10.31;82.28;100791.34;5114771;28;20028;-38
2021/05/14 06:20:06;;;;;;;22.30;17.52;;;;;;;10.37;82.05;100795.00;5115203;28;20096;-38
2021/05/14 06:22:31;;;;;;;22.17;17.90;;;;;;;10.43;82.68;100798.66;5115350;28;20027;-39
2021/05/14 06:24:57;;;;;;;19.37;17.37;;;;;;;10.52;82.62;100808.91;5115830;28;20104;-39
2021/05/14 06:27:22;;;;;;;19.97;17.73;;;;;;;10.57;82.66;100806.34;5115409;28;20447;-39
2021/05/14 06:29:47;;;;;;;19.00;17.03;;;;;;;10.70;82.36;100802.63;5115018;28;20035;-39
2021/05/14 06:32:13;;;;;;;18.63;16.63;;;;;;;10.81;81.58;100807.22;5114905;28;20028;-38
2021/05/14 06:34:38;;;;;;;18.95;16.23;;;;;;;10.98;81.22;100799.25;5115220;28;20027;-38
2021/05/14 06:37:04;;;;;;;21.27;17.37;;;;;;;11.06;81.03;100801.56;5114735;28;20020;-39
2021/05/14 06:39:29;;;;;;;19.57;17.17;;;;;;;11.18;80.49;100800.78;5115004;28;20072;-39
2021/05/14 06:41:54;;;;;;;20.60;18.45;;;;;;;11.17;81.70;100808.03;5115056;28;20387;-39
2021/05/14 06:44:20;;;;;;;19.57;17.47;;;;;;;11.21;81.31;100801.09;5115290;28;20031;-38
2021/05/14 06:46:45;;;;;;;21.23;18.73;;;;;;;11.26;80.77;100803.09;5115333;28;20035;-38
2021/05/14 06:49:11;;;;;;;20.03;17.93;;;;;;;11.31;80.85;100797.81;5114552;28;20016;-39
2021/05/14 06:51:36;;;;;;;19.80;17.70;;;;;;;11.42;80.94;100810.53;5114756;28;20020;-38
2021/05/14 06:54:02;;;;;;;20.17;17.97;;;;;;;11.70;79.80;100803.50;5114495;28;20472;-39
2021/05/14 06:56:28;;;;;;;20.45;18.30;;;;;;;11.85;78.58;100811.97;5114715;28;20031;-38
2021/05/14 06:58:54;;;;;;;20.70;18.50;;;;;;;11.95;78.17;100812.19;5114551;28;20454;-38
2021/05/14 07:01:21;;;;;;;20.52;18.25;;;;;;;11.93;78.47;100806.19;5114359;28;20035;-38
2021/05/14 07:03:46;;;;;;;21.70;19.17;;;;;;;12.19;79.76;100804.78;5114280;28;20489;-39
2021/05/14 07:06:12;;;;;;;20.33;17.73;;;;;;;12.31;77.79;100811.00;5114267;28;20023;-39
2021/05/14 07:08:37;;;;;;;20.30;18.20;;;;;;;12.36;77.95;100802.13;5115008;27;20039;-38
2021/05/14 07:11:02;;;;;;;20.50;18.40;;;;;;;12.39;77.25;100809.75;5114763;28;20496;-38
2021/05/14 07:13:28;;;;;;;20.93;18.70;;;;;;;12.46;76.65;100806.91;5114679;28;20036;-38
2021/05/14 07:15:53;;;;;;;20.60;18.40;;;;;;;12.54;76.39;100806.50;5114691;28;20115;-38
2021/05/14 07:18:19;;;;;;;19.83;17.70;;;;;;;12.53;75.94;100805.66;5114365;28;20024;-39
2021/05/14 07:20:44;;;;;;;19.27;17.17;;;;;;;12.59;75.65;100804.72;5114027;28;20024;-39
2021/05/14 07:23:09;;;;;;;21.40;19.10;;;;;;;12.68;76.40;100807.00;5113946;28;20030;-39
2021/05/14 07:25:35;;;;;;;20.40;17.67;;;;;;;12.76;75.29;100803.91;5114437;28;20024;-38
2021/05/14 07:28:00;;;;;;;18.10;16.20;;;;;;;12.82;74.34;100808.31;5114009;27;20048;-39
2021/05/14 07:30:26;;;;;;;18.87;16.70;;;;;;;12.92;74.31;100805.78;5114693;28;20023;-39
2021/05/14 07:32:51;;;;;;;15.97;14.37;;;;;;;13.13;73.77;100815.06;5114281;28;20601;-38
2021/05/14 07:35:16;;;;;;;15.97;14.27;;;;;;;13.20;71.70;100813.00;5114457;28;20463;-39
2021/05/14 07:37:42;;;;;;;23.15;13.70;;;;;;;13.27;70.70;100819.09;5114330;28;20284;-39
2021/05/14 07:40:08;;;;;;;15.45;13.95;;;;;;;13.22;70.20;100823.63;5114165;28;20395;-39
2021/05/14 07:42:34;;;;;;;15.50;13.27;;;;;;;13.23;70.37;100828.00;5112444;28;20024;-39
2021/05/14 07:44:59;;;;;;;15.53;13.93;;;;;;;13.27;69.92;100823.69;5114332;28;20132;-39
2021/05/14 07:47:25;;;;;;;16.47;14.80;;;;;;;13.30;70.40;100826.75;5113718;28;20054;-39
2021/05/14 07:49:50;;;;;;;15.13;13.63;;;;;;;13.26;69.65;100816.63;5114338;28;20293;-39
2021/05/14 07:52:15;;;;;;;13.03;11.77;;;;;;;13.32;68.29;100831.91;5113551;28;20024;-39
2021/05/14 07:54:42;;;;;;;13.63;12.23;;;;;;;13.48;68.79;100822.94;5114086;28;20172;-39
2021/05/14 07:57:07;;;;;;;11.93;10.15;;;;;;;13.70;66.47;100827.56;5114770;28;20023;-39
2021/05/14 07:59:33;;;;;;;10.50;9.33;;;;;;;13.82;64.88;100826.38;5117598;28;20038;-39
2021/05/14 08:01:58;;;;;;;11.20;10.03;;;;;;;13.97;66.79;100825.75;5117697;28;20312;-39
2021/05/14 08:04:23;;;;;;;10.83;9.73;;;;;;;14.03;65.08;100823.91;5117424;28;20103;-39
2021/05/14 08:06:51;;;;;;;9.97;7.90;;;;;;;14.17;63.35;100820.53;5117545;28;20330;-39
2021/05/14 08:09:20;;;;;;;10.48;8.88;;;;;;;14.36;63.51;100825.63;5117545;28;20024;-39
2021/05/14 08:11:46;;;;;;;11.75;9.25;;;;;;;14.18;61.07;100832.22;5117427;28;20059;-39
2021/05/14 08:14:12;;;;;;;10.60;7.85;;;;;;;14.23;61.00;100821.41;5117798;28;20031;-39
2021/05/14 08:16:37;;;;;;;8.95;7.93;;;;;;;14.30;60.98;100830.19;5117255;27;20054;-39
2021/05/14 08:19:03;;;;;;;16.08;9.32;;;;;;;14.54;62.24;100829.91;5117379;28;20103;-39
2021/05/14 08:21:28;;;;;;;11.35;8.93;;;;;;;14.52;60.62;100824.72;5117044;28;20124;-39
2021/05/14 08:23:54;;;;;;;9.50;8.50;;;;;;;14.50;60.17;100826.88;5118114;28;20024;-38
2021/05/14 08:26:19;;;;;;;9.30;8.40;;;;;;;14.60;61.05;100823.44;5117327;27;20368;-38
2021/05/14 08:28:44;;;;;;;9.43;7.90;;;;;;;14.69;60.35;100827.34;5117586;28;20431;-39
2021/05/14 08:31:10;;;;;;;8.70;7.80;;;;;;;14.80;58.92;100825.53;5116999;28;20479;-39
2021/05/14 08:33:35;;;;;;;8.27;7.38;;;;;;;14.91;58.79;100828.06;5117205;28;20020;-39
2021/05/14 08:36:01;;;;;;;10.30;7.87;;;;;;;15.01;58.28;100823.78;5117640;28;20034;-39
2021/05/14 08:38:27;;;;;;;8.55;7.65;;;;;;;15.30;57.59;100818.81;5117042;27;20096;-39
2021/05/14 08:40:53;;;;;;;9.65;8.52;;;;;;;15.38;57.30;100816.41;5117074;28;20019;-39
2021/05/14 08:43:19;;;;;;;8.77;7.97;;;;;;;15.48;57.66;100821.09;5116703;28;20403;-39
2021/05/14 08:45:44;;;;;;;10.25;8.90;;;;;;;15.42;57.06;100822.13;5117296;28;20028;-39
2021/05/14 08:48:13;;;;;;;10.10;9.07;;;;;;;15.44;58.44;100828.97;5117756;27;20038;-39
2021/05/14 08:50:40;;;;;;;9.40;8.40;;;;;;;15.48;57.85;100826.56;5117657;28;20027;-39
2021/05/14 08:53:07;;;;;;;10.27;9.23;;;;;;;15.59;57.52;100822.78;5116566;28;20031;-39
2021/05/14 08:55:33;;;;;;;9.60;8.60;;;;;;;15.55;57.55;100827.13;5117496;28;20096;-39
2021/05/14 08:57:58;;;;;;;11.77;9.02;;;;;;;15.65;57.70;100831.84;5116881;28;20089;-39
2021/05/14 09:00:26;;;;;;;10.02;8.57;;;;;;;15.65;57.22;100832.66;5117294;28;20031;-39
2021/05/14 09:02:52;;;;;;;11.15;8.75;;;;;;;15.66;56.49;100828.88;5116589;27;20035;-39
2021/05/14 09:05:28;;;;;;;9.18;8.18;;;;;;;15.86;57.32;100832.75;5117510;28;20072;-39
2021/05/14 09:07:55;;;;;;;9.30;8.37;;;;;;;15.78;56.29;100834.09;5116478;28;20035;-39
2021/05/14 09:10:21;;;;;;;9.57;8.65;;;;;;;15.67;56.57;100833.22;5115243;28;20523;-39
2021/05/14 09:12:47;;;;;;;;;;;;;;;15.93;55.75;100825.97;5116847;28;20063;-39
2021/05/14 09:15:21;;;;;;;8.18;7.38;;;;;;;15.70;55.60;100831.84;5117274;28;19912;-39
2021/05/14 09:18:05;;;;;;;8.50;7.63;;;;;;;15.85;56.64;100829.19;5115984;27;20490;-39
2021/05/14 09:20:34;;;;;;;8.40;7.32;;;;;;;15.84;56.16;100829.47;5116632;28;20036;-39
2021/05/14 09:22:59;;;;;;;10.00;7.50;;;;;;;16.04;54.80;100834.19;5116230;28;20023;-39
2021/05/14 09:25:25;;;;;;;8.50;6.93;;;;;;;16.11;53.88;100832.84;5116795;28;20042;-39
2021/05/14 09:27:50;;;;;;;9.55;7.28;;;;;;;16.27;52.82;100822.81;5116364;28;20079;-39
2021/05/14 09:30:15;;;;;;;7.55;6.75;;;;;;;16.54;52.83;100828.03;5116521;28;20032;-39
2021/05/14 09:32:41;;;;;;;7.18;6.00;;;;;;;16.80;51.83;100822.63;5116079;28;20027;-39
2021/05/14 09:35:07;;;;;;;;;;;;;;;17.13;54.72;100827.53;5116481;28;20508;-39
2021/05/14 09:37:32;;;;;;;8.23;6.15;;;;;;;17.02;51.81;100820.44;5115516;28;19918;-39
2021/05/14 09:40:22;;;;;;;7.00;6.18;;;;;;;17.21;50.51;100826.97;5116070;28;20027;-39
2021/05/14 09:42:57;;;;;;;6.05;5.05;;;;;;;17.48;48.66;100834.03;5116333;28;20031;-39
2021/05/14 09:45:24;;;;;;;6.00;5.40;;;;;;;17.32;47.58;100826.94;5115885;28;20105;-39
2021/05/14 09:48:18;;;;;;;6.45;5.80;;;;;;;16.75;49.18;100811.72;5115438;28;20038;-39
2021/05/14 09:50:44;;;;;;;7.05;5.10;;;;;;;16.67;48.44;100821.22;5116027;28;20035;-39
2021/05/14 09:53:12;;;;;;;6.88;5.28;;;;;;;16.87;47.76;100815.78;5116241;28;20023;-39
2021/05/14 09:55:40;;;;;;;6.07;4.78;;;;;;;17.18;47.49;100816.59;5115413;28;20043;-39
2021/05/14 09:58:16;;;;;;;5.55;4.47;;;;;;;17.57;47.00;100820.59;5115768;28;20080;-39
2021/05/14 10:00:42;;;;;;;5.43;4.72;;;;;;;17.69;45.27;100818.38;5115530;28;20031;-39
2021/05/14 10:03:09;;;;;;;;;;;;;;;17.98;48.96;100815.81;5115701;28;20372;-39
2021/05/14 10:05:36;;;;;;;5.50;4.38;;;;;;;17.88;46.99;100819.44;5115724;28;20283;-39
2021/05/14 10:08:03;;;;;;;4.03;3.50;;;;;;;18.06;45.28;100817.16;5115084;28;20056;-39
2021/05/14 10:10:31;;;;;;;5.65;3.92;;;;;;;18.25;43.68;100813.50;5115954;28;20024;-39
2021/05/14 10:12:57;;;;;;;5.05;3.97;;;;;;;18.39;42.50;100812.84;5115518;28;20182;-39
2021/05/14 10:15:24;;;;;;;6.35;3.95;;;;;;;18.60;42.30;100813.53;5115304;27;20431;-39
2021/05/14 10:17:51;;;;;;;7.95;7.15;;;;;;;18.41;47.54;100810.66;5115080;27;20089;-39
2021/05/14 10:20:19;;;;;;;7.28;6.22;;;;;;;18.30;47.17;100809.91;5115415;28;20028;-39
2021/05/14 10:22:47;;;;;;;3.97;3.47;;;;;;;18.46;43.26;100811.44;5115869;28;20035;-39
2021/05/14 10:25:20;;;;;;;6.22;4.00;;;;;;;18.46;43.28;100805.16;5115283;28;20024;-40
2021/05/14 10:27:45;;;;;;;5.38;3.97;;;;;;;18.84;42.89;100797.19;5115514;28;20394;-39
2021/05/14 10:30:11;;;;;;;;;;;;;;;19.18;46.83;100799.91;5115627;28;20024;-40
2021/05/14 10:32:45;;;;;;;7.18;6.47;;;;;;;18.85;46.33;100802.41;5115060;28;19912;-39
2021/05/14 10:35:33;;;;;;;9.50;6.75;;;;;;;18.98;46.08;100798.16;5114932;28;20123;-39
2021/05/14 10:38:03;;;;;;;9.20;7.07;;;;;;;18.64;44.34;100812.69;5114999;28;20054;-39
2021/05/14 10:40:34;;;;;;;7.85;6.53;;;;;;;18.46;44.87;100808.72;5114513;28;20100;-39
2021/05/14 10:43:00;;;;;;;7.38;5.85;;;;;;;18.61;44.76;100804.22;5115539;28;20063;-39
2021/05/14 10:45:34;;;;;;;;;;;;;;;18.93;45.78;100798.22;5114813;28;20028;-39
2021/05/14 10:48:00;;;;;;;6.03;4.88;;;;;;;18.15;42.60;100797.13;5114859;28;19950;-39
2021/05/14 10:50:39;;;;;;;;;;;;;;;18.51;45.00;100799.63;5114916;28;20391;-39
2021/05/14 10:53:16;;;;;;;7.35;5.70;;;;;;;18.26;45.65;100793.25;5114187;28;19908;-39
2021/05/14 10:55:42;;;;;;;7.13;5.70;;;;;;;18.16;46.44;100793.31;5114732;28;20486;-39
2021/05/14 10:58:08;;;;;;;;;;;;;;;18.46;47.79;100797.75;5114750;28;20035;-37
2021/05/14 11:00:37;;;;;;;6.65;5.85;;;;;;;18.05;45.05;100794.44;5114849;28;20350;-39
2021/05/14 11:03:11;;;;;;;8.23;6.10;;;;;;;17.83;45.53;100796.75;5114513;28;20528;-39
2021/05/14 11:05:42;;;;;;;7.47;6.07;;;;;;;17.71;46.29;100797.03;5114252;28;20028;-39
2021/05/14 11:08:09;;;;;;;7.07;6.25;;;;;;;17.57;46.33;100790.50;5113940;28;20032;-39
2021/05/14 11:10:35;;;;;;;8.15;6.97;;;;;;;17.50;47.59;100791.63;5114410;28;20027;-39
2021/05/14 11:13:37;;;;;;;7.57;6.53;;;;;;;17.36;47.46;100806.97;5114105;28;20069;-38
2021/05/14 11:16:37;;;;;;;6.85;6.18;;;;;;;17.02;47.87;100798.56;5114347;28;20103;-39
2021/05/14 11:19:28;;;;;;;6.72;6.03;;;;;;;17.09;47.65;100785.47;5113934;28;20024;-38
2021/05/14 11:21:59;;;;;;;6.95;6.25;;;;;;;17.16;48.37;100791.44;5114527;28;20098;-38